AYL weather

Ayuquila Airport
ComondĂș, Baja California Sur, Mexico

Public forecast

Using degrees Celsius for public forecast. Weather courtesy of forecast.io.

METAR (pilot weather report)

Report is more than 2 hours old.

Closest report is Loreto International Airport, 51.1 nm (94.6 km) NNE. Retrieved 2019/06/26 00:49 UTC (2 hours ago):

MMLT 260049Z 14008KT 8SM SKC 34/20 A2974

TAF (pilot weather forecast)

Forecast is more than 6 hours old.

Closest forecast is Loreto International Airport, 51.1 nm (94.6 km) NNE. Retrieved 2019/06/25 18:47 UTC (8 hours ago):

TAF MMLT 251643Z 2518/2618 04010KT P6SM SKC FM260200 00000KT P6SM SCT300